Melrose, Minnesota
Current Conditions -  °F | °C
As of 4:33 AM on Friday 24 Oct 2014 (Local Time) from KD39 Reporting Station
Clear Clear  
Wind Chill: 44°   Ceiling: Unl
Heat Index: 46°   Visibility: 10mi
Dew Point: 41°   Wind: 5mph
Humidity: 84%   Direction: 140°SE
Pressure: 29.87"   Gusts: NA
Location:  45.67°N, 94.81°W
Report Text: KD39 240933Z AUTO 14004KT 10SM CLR 08/05 A2987 RMK AO2 T00780052
Loading
Personal Weather Stations






























Interactive Weather Map
Tropical Storm Tracking
New forecast layout! Learn more

10-Day Weather Forecast

Advertisements
Track Severe Weather on mobile